Saint-Ambroise, Canada
Current Conditions -  °F | °C
As of 10:00 AM on Friday 24 Oct 2014 (Local Time) from CYBG Reporting Station
Broken Clouds Broken Clouds  
Wind Chill: 39°   Ceiling: 19000
Heat Index: 39°   Visibility: 25mi
Dew Point: 34°   Wind: 2mph
Humidity: 81%   Direction: 230°SW
Pressure: 29.98"   Gusts: NA
Location:  48.55°N, 71.32°W
Report Text: CYBG 241400Z 23002KT 25SM BKN190 04/01 A2998 RMK AC6 SLP159
Loading
Personal Weather Stations






























Interactive Weather Map
Tropical Storm Tracking
New forecast layout! Learn more

10-Day Weather Forecast

Advertisements
Track Severe Weather on mobile